Time;durP1;ratioP1;P1;durP2;ratioP2;P2;SDS_P1;SDS_P2;PMS_P1;PMS_P2;Temp;Humidity;BMP_temperature;BMP_pressure;BME280_temperature;BME280_humidity;BME280_pressure;Samples;Min_cycle;Max_cycle;Signal;HPM_P1;HPM_P2
2023/02/09 05:00:54;;;;;;;2.70;2.60;;;-1.80;99.90;;;;;;5714072;23;20280;-69
2023/02/09 05:03:21;;;;;;;3.67;3.58;;;-1.80;99.90;;;;;;4925795;29;20297;-70
2023/02/09 05:05:47;;;;;;;4.85;3.65;;;-1.80;99.90;;;;;;4928426;29;20207;-70
2023/02/09 05:08:14;;;;;;;4.82;4.50;;;-1.80;99.90;;;;;;4931712;29;20203;-69
2023/02/09 05:10:41;;;;;;;3.90;3.50;;;-1.80;99.90;;;;;;4930546;29;20741;-70
2023/02/09 05:13:07;;;;;;;6.88;3.47;;;-1.70;99.90;;;;;;4946357;28;20222;-69
2023/02/09 05:15:34;;;;;;;4.18;3.42;;;-1.70;99.90;;;;;;4963709;23;20217;-69
2023/02/09 05:18:02;;;;;;;2.45;2.45;;;-1.70;99.90;;;;;;4930278;29;20239;-69
2023/02/09 05:20:29;;;;;;;52.55;6.45;;;-1.70;99.90;;;;;;4932434;29;20215;-69
2023/02/09 05:22:55;;;;;;;5.05;4.78;;;-1.70;99.90;;;;;;4932738;29;20207;-69
2023/02/09 05:25:24;;;;;;;6.72;3.83;;;-1.70;99.90;;;;;;4931001;29;20574;-69
2023/02/09 05:27:51;;;;;;;12.23;3.15;;;-1.60;99.90;;;;;;4908933;29;20220;-68
2023/02/09 05:30:18;;;;;;;5.35;4.32;;;-1.70;99.90;;;;;;4913504;29;20214;-69
2023/02/09 05:32:45;;;;;;;2.28;1.90;;;-1.70;99.90;;;;;;4912612;29;20238;-69
2023/02/09 05:35:13;;;;;;;2.83;2.42;;;-1.70;99.90;;;;;;4907731;29;20223;-69
2023/02/09 05:37:40;;;;;;;8.35;7.53;;;-1.70;99.90;;;;;;4911333;29;20243;-68
2023/02/09 05:40:08;;;;;;;2.50;2.10;;;-1.70;99.90;;;;;;4914859;29;20605;-69
2023/02/09 05:42:35;;;;;;;5.53;5.10;;;-1.70;99.90;;;;;;4923540;29;20222;-69
2023/02/09 05:45:01;;;;;;;7.03;6.45;;;-1.70;99.90;;;;;;4918313;29;20216;-70
2023/02/09 05:47:28;;;;;;;7.53;4.25;;;-1.70;99.90;;;;;;4924087;29;20238;-68
2023/02/09 05:49:55;;;;;;;10.25;2.70;;;-1.80;99.90;;;;;;4923892;29;20676;-69
2023/02/09 05:52:24;;;;;;;2.63;1.80;;;-1.80;99.90;;;;;;4925612;29;20621;-68
2023/02/09 05:54:50;;;;;;;5.65;5.20;;;-1.80;99.90;;;;;;4926541;29;20730;-69
2023/02/09 05:57:17;;;;;;;7.65;5.93;;;-1.80;99.90;;;;;;4926033;29;20281;-69
2023/02/09 05:59:44;;;;;;;2.47;2.03;;;-1.80;99.90;;;;;;4928049;29;20208;-68
2023/02/09 06:02:11;;;;;;;5.00;3.90;;;-1.80;99.90;;;;;;4925521;29;20807;-68
2023/02/09 06:04:38;;;;;;;7.95;3.60;;;-1.80;99.90;;;;;;4924826;29;20202;-69
2023/02/09 06:07:04;;;;;;;2.50;2.40;;;-1.70;99.90;;;;;;4929041;29;20597;-69
2023/02/09 06:09:33;;;;;;;5.93;5.55;;;-1.70;99.90;;;;;;4926594;29;20570;-69
2023/02/09 06:11:59;;;;;;;7.10;6.65;;;-1.70;99.90;;;;;;4922762;29;20238;-69
2023/02/09 06:14:26;;;;;;;10.80;5.90;;;-1.70;99.90;;;;;;4921582;29;20704;-70
2023/02/09 06:16:53;;;;;;;2.05;1.90;;;-1.70;99.90;;;;;;4920608;29;20299;-70
2023/02/09 06:19:21;;;;;;;4.82;4.47;;;-1.70;99.90;;;;;;4918566;29;20204;-69
2023/02/09 06:21:48;;;;;;;4.47;4.07;;;-1.70;99.90;;;;;;4924889;29;20207;-70
2023/02/09 06:24:15;;;;;;;5.05;4.55;;;-1.70;99.90;;;;;;4923846;29;20209;-69
2023/02/09 06:26:44;;;;;;;1.67;1.67;;;-1.70;99.90;;;;;;4924218;29;20318;-69
2023/02/09 06:29:10;;;;;;;12.05;9.73;;;-1.70;99.90;;;;;;4923400;29;20653;-70
2023/02/09 06:31:40;;;;;;;8.43;7.22;;;-1.70;99.90;;;;;;4927926;29;20571;-70
2023/02/09 06:34:07;;;;;;;6.20;5.63;;;-1.70;99.90;;;;;;4922095;29;20240;-70
2023/02/09 06:36:34;;;;;;;5.53;4.70;;;-1.70;99.90;;;;;;4929133;29;20238;-70
2023/02/09 06:39:01;;;;;;;3.00;2.40;;;-1.70;99.90;;;;;;4910022;29;20344;-70
2023/02/09 06:41:28;;;;;;;1.65;1.65;;;-1.60;99.90;;;;;;4919966;29;20226;-70
2023/02/09 06:43:56;;;;;;;5.43;4.97;;;-1.70;99.90;;;;;;4926416;29;20206;-70
2023/02/09 06:46:23;;;;;;;4.63;4.43;;;-1.70;99.90;;;;;;4921891;29;20576;-70
2023/02/09 06:48:49;;;;;;;5.15;4.82;;;-1.70;99.90;;;;;;4929057;29;20274;-70
2023/02/09 06:51:16;;;;;;;6.93;6.15;;;-1.70;99.90;;;;;;4907417;29;20583;-70
2023/02/09 06:53:43;;;;;;;7.00;4.80;;;-1.70;99.90;;;;;;4930223;29;20231;-70
2023/02/09 06:56:11;;;;;;;13.00;4.60;;;-1.60;99.90;;;;;;4921930;29;20573;-70
2023/02/09 06:58:40;;;;;;;4.22;2.05;;;-1.60;99.90;;;;;;4928220;29;20209;-70
2023/02/09 07:01:10;;;;;;;3.97;3.78;;;-1.60;99.90;;;;;;4917121;29;20213;-70
2023/02/09 07:03:37;;;;;;;3.03;2.92;;;-1.60;99.90;;;;;;4925178;29;20211;-70
2023/02/09 07:06:06;;;;;;;6.85;2.47;;;-1.60;99.90;;;;;;4915128;29;20228;-70
2023/02/09 07:08:33;;;;;;;2.38;2.38;;;-1.60;99.90;;;;;;4909661;29;20215;-70
2023/02/09 07:11:02;;;;;;;5.07;3.25;;;-1.50;99.90;;;;;;4911720;29;20208;-68
2023/02/09 07:13:29;;;;;;;5.32;5.10;;;-1.50;99.90;;;;;;4913442;29;20302;-69
2023/02/09 07:15:56;;;;;;;1.90;1.90;;;-1.50;99.90;;;;;;4919036;29;20598;-69
2023/02/09 07:18:25;;;;;;;6.20;5.72;;;-1.40;99.90;;;;;;4927228;29;20204;-69
2023/02/09 07:20:55;;;;;;;3.22;2.47;;;-1.40;99.90;;;;;;4933605;29;20215;-69
2023/02/09 07:23:23;;;;;;;2.95;2.58;;;-1.40;99.90;;;;;;4933334;29;20486;-69
2023/02/09 07:25:49;;;;;;;19.85;1.92;;;-1.40;99.90;;;;;;4926330;29;20224;-69
2023/02/09 07:28:19;;;;;;;10.30;5.72;;;-1.30;99.90;;;;;;4918361;29;20212;-69
2023/02/09 07:30:47;;;;;;;4.47;4.07;;;-1.30;99.90;;;;;;4909453;29;20304;-70
2023/02/09 07:33:13;;;;;;;3.22;2.97;;;-1.30;99.90;;;;;;4906801;29;20228;-69
2023/02/09 07:35:42;;;;;;;18.42;5.75;;;-1.20;99.90;;;;;;4911001;29;20237;-70
2023/02/09 07:38:08;;;;;;;6.78;6.32;;;-1.20;99.90;;;;;;4913847;29;20211;-69
2023/02/09 07:40:37;;;;;;;11.20;2.88;;;-1.10;99.90;;;;;;4922787;29;20211;-67
2023/02/09 07:43:04;;;;;;;4.80;3.60;;;-1.10;99.90;;;;;;4913758;29;20219;-69
2023/02/09 07:45:31;;;;;;;3.00;2.80;;;-1.00;99.90;;;;;;4922204;29;20201;-70
2023/02/09 07:47:57;;;;;;;12.45;3.08;;;-0.90;99.90;;;;;;4920086;29;20665;-69
2023/02/09 07:50:24;;;;;;;3.70;3.55;;;-0.90;99.90;;;;;;4924978;29;20562;-70
2023/02/09 07:52:54;;;;;;;4.13;3.72;;;-0.80;99.90;;;;;;4915626;29;20221;-69
2023/02/09 07:55:21;;;;;;;4.07;3.88;;;-0.70;99.90;;;;;;4914734;29;20304;-69
2023/02/09 07:57:48;;;;;;;1.38;1.38;;;-0.70;99.90;;;;;;4922701;29;21060;-69
2023/02/09 08:00:16;;;;;;;5.15;3.50;;;-0.70;99.90;;;;;;4915126;29;20213;-68
2023/02/09 08:02:44;;;;;;;1.35;1.25;;;-0.60;99.90;;;;;;4909706;29;20219;-69
2023/02/09 08:05:14;;;;;;;6.70;6.15;;;-0.60;99.90;;;;;;4913617;29;20213;-69
2023/02/09 08:07:41;;;;;;;3.03;2.35;;;-0.60;99.90;;;;;;4912690;29;20236;-69
2023/02/09 08:10:09;;;;;;;3.72;3.45;;;-0.50;99.90;;;;;;4909378;29;20219;-70
2023/02/09 08:15:22;;;;;;;4.15;3.75;;;-0.50;99.90;;;;;;4923993;29;20239;-70
2023/02/09 08:17:50;;;;;;;11.85;3.47;;;-0.30;99.90;;;;;;4923124;29;20224;-71
2023/02/09 08:20:20;;;;;;;7.15;3.20;;;-0.30;99.90;;;;;;4914470;29;20209;-69
2023/02/09 08:22:50;;;;;;;1.70;1.60;;;-0.20;99.90;;;;;;4926510;29;20209;-70
2023/02/09 08:25:20;;;;;;;6.43;6.13;;;-0.20;99.90;;;;;;4912908;29;20205;-70
2023/02/09 08:27:47;;;;;;;4.28;3.88;;;-0.10;99.90;;;;;;4925562;29;20236;-70
2023/02/09 08:30:16;;;;;;;4.57;2.53;;;0.00;99.90;;;;;;4914842;29;20236;-70
2023/02/09 08:32:42;;;;;;;3.50;3.30;;;0.00;99.90;;;;;;4914115;29;20215;-70
2023/02/09 08:35:10;;;;;;;9.20;5.55;;;0.10;99.90;;;;;;4914115;29;20234;-69
2023/02/09 08:37:37;;;;;;;3.13;1.90;;;0.10;99.90;;;;;;4915125;29;20687;-69
2023/02/09 08:40:04;;;;;;;4.75;3.30;;;0.20;99.90;;;;;;4923073;29;20210;-69
2023/02/09 08:42:32;;;;;;;8.93;5.78;;;0.20;99.90;;;;;;4916215;29;20216;-69
2023/02/09 08:44:59;;;;;;;9.38;4.68;;;0.30;99.90;;;;;;4919950;29;20561;-69
2023/02/09 08:47:26;;;;;;;3.38;2.65;;;0.40;99.90;;;;;;4911615;29;20230;-69
2023/02/09 08:49:52;;;;;;;2.35;2.15;;;0.40;99.90;;;;;;4921209;29;20297;-69
2023/02/09 08:52:19;;;;;;;5.78;5.28;;;0.50;99.90;;;;;;4916895;29;20205;-68
2023/02/09 08:54:46;;;;;;;3.28;2.67;;;0.50;99.90;;;;;;4923985;29;20226;-68
2023/02/09 08:57:12;;;;;;;3.80;3.55;;;0.60;99.90;;;;;;4919936;29;20563;-70
2023/02/09 08:59:40;;;;;;;3.35;3.22;;;0.70;99.90;;;;;;4925585;29;20220;-69
2023/02/09 09:02:07;;;;;;;2.42;2.28;;;0.80;99.90;;;;;;4923331;29;20608;-69
2023/02/09 09:04:34;;;;;;;4.43;3.80;;;0.90;99.90;;;;;;4933394;29;20211;-69
2023/02/09 09:07:00;;;;;;;5.95;5.45;;;1.00;99.90;;;;;;4917153;29;20732;-70
2023/02/09 09:09:27;;;;;;;3.30;3.10;;;1.00;99.90;;;;;;4919853;29;20207;-69
2023/02/09 09:11:54;;;;;;;11.18;3.95;;;1.00;99.90;;;;;;4920862;29;20202;-68
2023/02/09 09:14:20;;;;;;;7.60;3.90;;;1.10;99.90;;;;;;4922784;29;20220;-71
2023/02/09 09:16:48;;;;;;;2.83;1.85;;;1.10;99.90;;;;;;4915600;29;20238;-69
2023/02/09 09:19:15;;;;;;;3.58;3.30;;;1.20;99.90;;;;;;4911917;29;20207;-69
2023/02/09 09:21:42;;;;;;;4.97;1.83;;;1.20;99.90;;;;;;4912860;29;20225;-69
2023/02/09 09:24:08;;;;;;;2.47;2.28;;;1.20;99.90;;;;;;4916107;29;20247;-70
2023/02/09 09:26:35;;;;;;;2.78;2.42;;;1.20;99.90;;;;;;4914744;29;20754;-70
2023/02/09 09:29:02;;;;;;;8.38;2.42;;;1.30;99.90;;;;;;4912004;29;20218;-70
2023/02/09 09:31:32;;;;;;;5.95;3.50;;;1.30;99.90;;;;;;4912308;29;20230;-70
2023/02/09 09:34:00;;;;;;;3.88;3.50;;;1.30;99.90;;;;;;4913016;29;20242;-71
2023/02/09 09:36:26;;;;;;;2.72;2.55;;;1.30;99.90;;;;;;4916053;29;20234;-70
2023/02/09 09:38:53;;;;;;;2.88;2.85;;;1.40;99.90;;;;;;4914546;29;20218;-69
2023/02/09 09:41:24;;;;;;;2.55;2.50;;;1.40;99.90;;;;;;4912290;29;20210;-70
2023/02/09 09:43:52;;;;;;;3.15;3.00;;;1.40;99.90;;;;;;4920429;29;20218;-71
2023/02/09 09:46:21;;;;;;;4.07;3.47;;;1.50;99.90;;;;;;4910454;29;20222;-69
2023/02/09 09:48:51;;;;;;;2.28;2.22;;;1.50;99.90;;;;;;4911898;29;20218;-70
2023/02/09 09:51:24;;;;;;;2.58;1.88;;;1.60;99.90;;;;;;4914116;29;20678;-69
2023/02/09 09:53:53;;;;;;;3.50;2.40;;;1.60;99.90;;;;;;4917888;29;20202;-70
2023/02/09 09:56:20;;;;;;;2.15;1.85;;;1.70;99.90;;;;;;4921242;29;20255;-70
2023/02/09 09:58:48;;;;;;;8.02;3.00;;;1.70;99.90;;;;;;4919553;29;20233;-70
2023/02/09 10:01:17;;;;;;;3.28;2.20;;;1.80;99.90;;;;;;4915225;29;20210;-69
2023/02/09 10:03:44;;;;;;;2.92;2.38;;;1.80;99.90;;;;;;4916796;29;20310;-69
2023/02/09 10:06:15;;;;;;;1.75;1.75;;;1.90;99.90;;;;;;4913075;29;20540;-69
2023/02/09 10:08:50;;;;;;;8.45;4.57;;;1.90;99.90;;;;;;4908684;29;20535;-68
2023/02/09 10:11:22;;;;;;;3.53;3.22;;;1.90;99.90;;;;;;4918695;29;20210;-70
2023/02/09 10:13:50;;;;;;;1.38;1.35;;;1.90;99.90;;;;;;4912949;29;20222;-68
2023/02/09 10:16:20;;;;;;;3.20;2.40;;;2.00;99.90;;;;;;4920869;29;20240;-70
2023/02/09 10:18:50;;;;;;;3.35;2.88;;;2.10;99.90;;;;;;4918216;29;20285;-70
2023/02/09 10:21:17;;;;;;;3.25;2.97;;;2.10;99.90;;;;;;4915215;29;20551;-70
2023/02/09 10:23:47;;;;;;;4.03;1.85;;;2.20;99.90;;;;;;4919369;29;20210;-71
2023/02/09 10:26:21;;;;;;;5.80;3.67;;;2.20;99.90;;;;;;4914571;29;20223;-70
2023/02/09 10:28:50;;;;;;;9.93;3.25;;;2.30;99.90;;;;;;4909990;29;20214;-71
2023/02/09 10:31:23;;;;;;;2.33;2.28;;;2.40;99.90;;;;;;4922338;29;20213;-70
2023/02/09 10:33:55;;;;;;;2.30;2.13;;;2.50;99.90;;;;;;4926237;29;20210;-70
2023/02/09 10:36:28;;;;;;;4.03;2.88;;;2.60;99.90;;;;;;4924945;29;20704;-70
2023/02/09 10:39:14;;;;;;;5.45;4.68;;;2.70;99.90;;;;;;4916657;29;20222;-69
2023/02/09 10:41:44;;;;;;;2.67;2.67;;;2.70;99.90;;;;;;4914426;29;20211;-70
2023/02/09 10:44:18;;;;;;;2.25;1.63;;;2.80;99.90;;;;;;4923342;29;20213;-69
2023/02/09 10:46:45;;;;;;;4.03;2.50;;;2.80;99.90;;;;;;4921703;29;20225;-70
2023/02/09 10:49:30;;;;;;;2.10;1.85;;;2.80;99.90;;;;;;4917173;29;20263;-69
2023/02/09 10:52:14;;;;;;;3.78;3.15;;;2.80;99.90;;;;;;4915562;29;20875;-69
2023/02/09 10:54:44;;;;;;;3.58;2.55;;;2.90;99.90;;;;;;4920767;29;20305;-69
2023/02/09 10:57:22;;;;;;;3.03;2.40;;;3.00;99.90;;;;;;4928101;29;20550;-69
2023/02/09 10:59:51;;;;;;;14.02;8.07;;;3.10;99.90;;;;;;4909367;29;20218;-69
2023/02/09 11:02:34;;;;;;;3.85;3.55;;;3.10;99.90;;;;;;4921122;29;20277;-70
2023/02/09 11:05:01;;;;;;;7.60;2.63;;;3.20;99.90;;;;;;4922760;29;20237;-70
2023/02/09 11:07:35;;;;;;;6.10;4.82;;;3.20;99.90;;;;;;4917170;29;20234;-70
2023/02/09 11:10:05;;;;;;;4.55;4.38;;;3.30;99.90;;;;;;4914696;29;20214;-69
2023/02/09 11:12:32;;;;;;;2.72;2.50;;;3.40;99.90;;;;;;4912758;29;20217;-70
2023/02/09 11:14:58;;;;;;;1.95;1.85;;;3.40;99.90;;;;;;4918508;29;20207;-69
2023/02/09 11:17:28;;;;;;;4.90;4.38;;;3.40;99.90;;;;;;4913759;29;20242;-68
2023/02/09 11:20:08;;;;;;;5.90;3.20;;;3.40;99.90;;;;;;4917027;29;20233;-71
2023/02/09 11:22:53;;;;;;;5.10;4.70;;;3.40;99.90;;;;;;4916149;29;20671;-71
2023/02/09 11:25:26;;;;;;;6.68;4.95;;;3.40;99.90;;;;;;4919125;29;20277;-72
2023/02/09 11:28:13;;;;;;;1.58;1.48;;;3.50;99.90;;;;;;4919778;29;20218;-70
2023/02/09 11:30:58;;;;;;;8.77;3.67;;;3.60;99.90;;;;;;4919105;29;20206;-70
2023/02/09 11:33:33;;;;;;;3.80;2.70;;;3.60;99.90;;;;;;4924516;29;20214;-71
2023/02/09 11:36:15;;;;;;;3.25;3.05;;;3.70;99.90;;;;;;4913290;29;20238;-71
2023/02/09 11:38:49;;;;;;;4.35;3.00;;;3.80;99.90;;;;;;4917858;29;20206;-71
2023/02/09 11:44:20;;;;;;;2.95;2.85;;;4.00;99.90;;;;;;4916080;29;20223;-70
2023/02/09 11:46:50;;;;;;;4.55;3.45;;;4.10;99.90;;;;;;4923383;29;20225;-69
2023/02/09 11:49:25;;;;;;;2.90;2.70;;;4.10;99.90;;;;;;4928910;29;20252;-71
2023/02/09 11:51:54;;;;;;;3.80;3.60;;;4.10;99.90;;;;;;4928475;29;20226;-69
2023/02/09 11:54:26;;;;;;;4.35;2.78;;;4.20;99.90;;;;;;4923260;29;20286;-71
2023/02/09 11:57:01;;;;;;;1.85;1.85;;;4.30;99.90;;;;;;4928322;29;20234;-69
2023/02/09 11:59:32;;;;;;;3.33;3.05;;;4.30;99.90;;;;;;4920522;29;20222;-69
2023/02/09 12:02:09;;;;;;;3.00;2.67;;;4.20;99.90;;;;;;4911592;29;20217;-71
2023/02/09 12:04:44;;;;;;;3.60;3.30;;;4.20;99.90;;;;;;4926607;29;20222;-70
2023/02/09 12:07:17;;;;;;;2.35;2.15;;;4.30;99.90;;;;;;4909656;29;20317;-67
2023/02/09 12:09:50;;;;;;;8.13;3.60;;;4.30;99.90;;;;;;4912953;29;20207;-68
2023/02/09 12:12:25;;;;;;;3.63;2.75;;;4.40;99.90;;;;;;4913034;29;20208;-68
2023/02/09 12:15:11;;;;;;;3.72;3.10;;;4.40;99.90;;;;;;4919026;29;20210;-70
2023/02/09 12:17:44;;;;;;;2.78;1.45;;;4.40;99.90;;;;;;4916962;29;20231;-69
2023/02/09 12:20:24;;;;;;;3.67;3.30;;;4.50;99.90;;;;;;4912303;29;20224;-68
2023/02/09 12:23:06;;;;;;;1.95;1.95;;;4.50;99.90;;;;;;4912015;29;20311;-68
2023/02/09 12:25:48;;;;;;;5.35;2.70;;;4.50;99.90;;;;;;4919968;29;20238;-67
2023/02/09 12:28:42;;;;;;;2.92;2.38;;;4.50;99.90;;;;;;4907458;29;20222;-69
2023/02/09 12:31:26;;;;;;;6.18;3.03;;;4.60;99.90;;;;;;4917703;29;20214;-68
2023/02/09 12:34:14;;;;;;;1.88;1.77;;;4.60;99.90;;;;;;4917984;29;20229;-67
2023/02/09 12:37:17;;;;;;;1.75;1.65;;;4.60;99.90;;;;;;4905369;29;20253;-68
2023/02/09 12:40:17;;;;;;;3.58;3.25;;;4.60;99.90;;;;;;4917283;29;20224;-68
2023/02/09 12:42:45;;;;;;;4.05;2.97;;;4.50;99.90;;;;;;4917976;29;20220;-68
2023/02/09 12:45:32;;;;;;;1.20;1.20;;;4.60;99.90;;;;;;4912936;29;20216;-68
2023/02/09 12:48:10;;;;;;;2.55;2.55;;;4.60;99.90;;;;;;4905079;29;20302;-69
2023/02/09 12:50:53;;;;;;;4.50;3.08;;;4.60;99.90;;;;;;4917810;29;20214;-69
2023/02/09 12:53:49;;;;;;;13.77;8.93;;;4.60;99.90;;;;;;4909341;29;20207;-68
2023/02/09 12:56:31;;;;;;;3.65;3.30;;;4.70;99.90;;;;;;4915874;29;20236;-69
2023/02/09 12:59:20;;;;;;;4.03;2.92;;;4.70;99.90;;;;;;4913842;29;20239;-71
2023/02/09 13:02:11;;;;;;;2.80;2.60;;;4.70;99.90;;;;;;4909214;29;20314;-69
2023/02/09 13:04:44;;;;;;;3.20;3.00;;;4.80;99.90;;;;;;4924325;29;20221;-69
2023/02/09 13:07:24;;;;;;;5.68;4.07;;;4.80;99.90;;;;;;4915888;29;20329;-69
2023/02/09 13:09:52;;;;;;;2.47;2.35;;;4.80;99.90;;;;;;4916086;29;20652;-69
2023/02/09 13:12:27;;;;;;;1.67;1.67;;;4.80;99.90;;;;;;4915691;29;20932;-67
2023/02/09 13:14:54;;;;;;;7.10;3.88;;;4.80;99.90;;;;;;4906642;29;20667;-67
2023/02/09 13:17:38;;;;;;;3.63;3.42;;;4.90;99.90;;;;;;4910243;29;20712;-68
2023/02/09 13:20:27;;;;;;;3.50;2.65;;;4.90;99.90;;;;;;4910524;29;20618;-67
2023/02/09 13:23:06;;;;;;;5.40;3.25;;;4.90;99.90;;;;;;4911274;29;20216;-68
2023/02/09 13:25:35;;;;;;;6.03;3.50;;;5.00;99.90;;;;;;4918966;29;20223;-69
2023/02/09 13:28:08;;;;;;;8.63;4.80;;;5.00;99.90;;;;;;4911381;29;20214;-68
2023/02/09 13:30:36;;;;;;;3.03;2.80;;;5.00;99.90;;;;;;4909483;29;20314;-68
2023/02/09 13:33:08;;;;;;;2.33;2.28;;;5.00;99.90;;;;;;4916806;29;20665;-67
2023/02/09 13:35:44;;;;;;;4.45;3.70;;;4.90;99.90;;;;;;4913750;29;20220;-68
2023/02/09 13:38:16;;;;;;;2.78;2.58;;;4.90;99.90;;;;;;4909214;29;20243;-67
2023/02/09 13:40:46;;;;;;;7.18;2.72;;;4.80;99.90;;;;;;4916220;29;20227;-66
2023/02/09 13:43:17;;;;;;;8.57;4.07;;;4.90;99.90;;;;;;4919111;29;20206;-67
2023/02/09 13:45:47;;;;;;;6.90;3.03;;;4.80;99.90;;;;;;4916159;29;20587;-66
2023/02/09 13:48:22;;;;;;;5.47;3.15;;;4.80;99.90;;;;;;4906814;29;20633;-66
2023/02/09 13:50:50;;;;;;;2.63;1.30;;;4.80;99.90;;;;;;4917876;29;20219;-68
2023/02/09 13:53:19;;;;;;;2.58;2.38;;;4.80;99.90;;;;;;4919353;29;20204;-70
2023/02/09 13:55:48;;;;;;;2.78;2.58;;;4.70;99.90;;;;;;4917983;29;20218;-67
2023/02/09 13:58:19;;;;;;;4.65;3.00;;;4.70;99.90;;;;;;4916521;29;20573;-69
2023/02/09 14:00:51;;;;;;;3.00;2.90;;;4.70;99.90;;;;;;4923441;29;20560;-70
2023/02/09 14:03:21;;;;;;;1.90;1.90;;;4.70;99.90;;;;;;4919487;29;20208;-71
2023/02/09 14:05:55;;;;;;;7.03;2.70;;;4.60;99.90;;;;;;4919575;29;20706;-70
2023/02/09 14:08:22;;;;;;;2.40;2.40;;;4.70;99.90;;;;;;4920643;29;20216;-69
2023/02/09 14:10:53;;;;;;;3.20;2.90;;;4.60;99.90;;;;;;4925814;29;20203;-69
2023/02/09 14:13:23;;;;;;;5.13;4.72;;;4.60;99.90;;;;;;4924404;29;20236;-68
2023/02/09 14:18:46;;;;;;;6.85;3.30;;;4.60;99.90;;;;;;4919363;29;20586;-69
2023/02/09 14:21:31;;;;;;;2.88;2.75;;;4.60;99.90;;;;;;4911995;29;20207;-69
2023/02/09 14:24:16;;;;;;;10.68;1.95;;;4.50;99.90;;;;;;4917357;29;20292;-68
2023/02/09 14:26:46;;;;;;;2.85;2.65;;;4.50;99.90;;;;;;4915276;29;20234;-69
2023/02/09 14:29:16;;;;;;;1.98;1.95;;;4.50;99.90;;;;;;4917281;29;20211;-68
2023/02/09 14:31:45;;;;;;;3.63;3.45;;;4.50;99.90;;;;;;4917514;29;20755;-69
2023/02/09 14:34:23;;;;;;;6.10;5.50;;;4.50;99.90;;;;;;4921773;29;20207;-69
2023/02/09 14:36:56;;;;;;;7.00;2.00;;;4.50;99.90;;;;;;4917443;29;20552;-68
2023/02/09 14:39:23;;;;;;;3.28;3.17;;;4.50;99.90;;;;;;4925553;29;20203;-68
2023/02/09 14:41:58;;;;;;;8.45;7.60;;;4.40;99.90;;;;;;4915593;29;20207;-68
2023/02/09 14:44:26;;;;;;;5.10;3.92;;;4.40;99.90;;;;;;4922980;29;20647;-69
2023/02/09 14:46:55;;;;;;;1.58;1.58;;;4.40;99.90;;;;;;4918135;29;20610;-68
2023/02/09 14:49:22;;;;;;;2.63;2.45;;;4.30;99.90;;;;;;4923377;29;20207;-69
2023/02/09 14:51:51;;;;;;;3.33;3.03;;;4.30;99.90;;;;;;4928721;29;20552;-68
2023/02/09 14:54:24;;;;;;;3.53;3.33;;;4.30;99.90;;;;;;4919935;29;20635;-71
2023/02/09 14:56:52;;;;;;;3.75;1.70;;;4.20;99.90;;;;;;4923516;29;20233;-68
2023/02/09 14:59:20;;;;;;;3.20;1.88;;;4.20;99.90;;;;;;4927511;29;20302;-69
2023/02/09 15:01:47;;;;;;;6.22;3.35;;;4.20;99.90;;;;;;4922739;29;20680;-68
2023/02/09 15:04:14;;;;;;;15.43;6.63;;;4.20;99.90;;;;;;4900936;29;20622;-69
2023/02/09 15:06:44;;;;;;;5.40;3.53;;;4.10;99.90;;;;;;4913421;29;20233;-69
2023/02/09 15:09:19;;;;;;;3.83;3.53;;;4.10;99.90;;;;;;4914993;29;20616;-69
2023/02/09 15:12:05;;;;;;;5.00;3.30;;;4.10;99.90;;;;;;4907211;29;20623;-68
2023/02/09 15:14:37;;;;;;;4.80;1.83;;;4.00;99.90;;;;;;4911529;29;20319;-67
2023/02/09 15:17:15;;;;;;;6.85;4.13;;;4.00;99.90;;;;;;4911499;29;20243;-70
2023/02/09 15:19:43;;;;;;;8.95;3.95;;;3.90;99.90;;;;;;4912397;29;20207;-69
2023/02/09 15:22:13;;;;;;;4.05;3.60;;;3.90;99.90;;;;;;4908610;29;20211;-68
2023/02/09 15:24:40;;;;;;;6.03;4.13;;;3.90;99.90;;;;;;4912567;29;20211;-69
2023/02/09 15:27:15;;;;;;;2.53;2.42;;;3.80;99.90;;;;;;4913481;29;20228;-69
2023/02/09 15:29:42;;;;;;;2.65;2.08;;;3.80;99.90;;;;;;4906302;29;20302;-69
2023/02/09 15:32:14;;;;;;;6.82;2.60;;;3.70;99.90;;;;;;4915426;29;20214;-68
2023/02/09 15:34:42;;;;;;;4.35;2.42;;;3.70;99.90;;;;;;4914256;29;20198;-69
2023/02/09 15:37:16;;;;;;;4.88;2.35;;;3.70;99.90;;;;;;4927494;29;20245;-69
2023/02/09 15:39:42;;;;;;;4.57;2.95;;;3.70;99.90;;;;;;4911301;29;20207;-68
2023/02/09 15:47:55;;;;;;;7.10;2.78;;;3.70;99.90;;;;;;4915148;29;20325;-70
2023/02/09 15:50:21;;;;;;;7.35;3.58;;;3.70;99.90;;;;;;4916276;29;20255;-70
2023/02/09 15:52:48;;;;;;;3.15;2.40;;;3.70;99.90;;;;;;4913997;29;20214;-68
2023/02/09 15:55:19;;;;;;;4.05;3.75;;;3.70;99.90;;;;;;4927853;29;20576;-71
2023/02/09 15:57:49;;;;;;;2.35;1.85;;;3.70;99.90;;;;;;4922233;29;20258;-69
2023/02/09 16:00:20;;;;;;;2.67;2.35;;;3.70;99.90;;;;;;4921105;29;20650;-69
2023/02/09 16:02:48;;;;;;;2.00;1.90;;;3.70;99.90;;;;;;4910262;29;20768;-69
2023/02/09 16:05:15;;;;;;;15.13;2.15;;;3.70;99.90;;;;;;4916999;29;20251;-69
2023/02/09 16:07:42;;;;;;;2.47;2.47;;;3.70;99.90;;;;;;4912783;29;20527;-69
2023/02/09 16:10:15;;;;;;;2.65;2.55;;;3.70;99.90;;;;;;4921298;29;20214;-69
2023/02/09 16:12:42;;;;;;;3.55;3.25;;;3.70;99.90;;;;;;4911138;29;20218;-69
2023/02/09 16:15:18;;;;;;;4.93;3.40;;;3.70;99.90;;;;;;4920700;29;20300;-70
2023/02/09 16:17:45;;;;;;;4.57;1.55;;;3.70;99.90;;;;;;4912799;29;20235;-69
2023/02/09 16:20:12;;;;;;;2.33;2.22;;;3.70;99.90;;;;;;4920523;29;20211;-71
2023/02/09 16:22:41;;;;;;;6.75;3.22;;;3.70;99.90;;;;;;4911173;29;20217;-68
2023/02/09 16:25:19;;;;;;;9.32;5.32;;;3.70;99.90;;;;;;4915174;29;20588;-70
2023/02/09 16:27:46;;;;;;;2.15;2.05;;;3.70;99.90;;;;;;4913387;29;20752;-68
2023/02/09 16:30:18;;;;;;;4.15;3.20;;;3.70;99.90;;;;;;4914517;29;20214;-68
2023/02/09 16:32:45;;;;;;;4.90;3.58;;;3.70;99.90;;;;;;4914035;29;20217;-68
2023/02/09 16:35:14;;;;;;;1.75;1.75;;;3.70;99.90;;;;;;4926624;29;20550;-69
2023/02/09 16:37:42;;;;;;;4.18;2.78;;;3.70;99.90;;;;;;4913099;29;20263;-69
2023/02/09 16:40:23;;;;;;;4.25;2.65;;;3.70;99.90;;;;;;4924482;29;20780;-68
2023/02/09 16:42:50;;;;;;;2.92;2.83;;;3.70;99.90;;;;;;4912232;29;20207;-67
2023/02/09 16:45:18;;;;;;;3.72;3.53;;;3.80;99.90;;;;;;4915091;29;20215;-68
2023/02/09 16:47:49;;;;;;;5.80;3.80;;;3.70;99.90;;;;;;4915054;29;20222;-69
2023/02/09 16:50:24;;;;;;;3.17;2.50;;;3.70;99.90;;;;;;4912890;29;20232;-69
2023/02/09 16:52:52;;;;;;;3.80;3.42;;;3.80;99.90;;;;;;4908708;29;20230;-68
2023/02/09 16:55:26;;;;;;;3.25;3.05;;;3.80;99.90;;;;;;4914380;29;20209;-68
2023/02/09 16:57:53;;;;;;;2.10;2.00;;;3.80;99.90;;;;;;4912883;29;20245;-68
2023/02/09 17:00:23;;;;;;;4.38;2.65;;;3.80;99.90;;;;;;4915556;29;20211;-68
2023/02/09 17:02:53;;;;;;;8.93;4.38;;;3.80;99.90;;;;;;4918050;29;20286;-68
2023/02/09 17:05:24;;;;;;;3.10;3.00;;;3.80;99.90;;;;;;4912698;29;20276;-68
2023/02/09 17:07:53;;;;;;;2.63;2.63;;;3.80;99.90;;;;;;4910510;29;20238;-69
2023/02/09 17:10:22;;;;;;;4.47;4.07;;;3.80;99.90;;;;;;4914050;29;20218;-69
2023/02/09 17:12:49;;;;;;;2.72;2.53;;;3.80;99.90;;;;;;4917948;29;20677;-67
2023/02/09 17:15:17;;;;;;;6.47;4.53;;;3.80;99.90;;;;;;4914172;29;20217;-67
2023/02/09 17:17:48;;;;;;;4.30;3.95;;;3.80;99.90;;;;;;4909940;29;20246;-68
2023/02/09 17:20:18;;;;;;;3.55;3.13;;;3.80;99.90;;;;;;4916951;29;20219;-67
2023/02/09 17:22:45;;;;;;;10.52;4.70;;;3.80;99.90;;;;;;4913362;29;20579;-67
2023/02/09 17:25:15;;;;;;;3.63;3.42;;;3.70;99.90;;;;;;4914468;29;20221;-67
2023/02/09 17:27:42;;;;;;;15.13;5.22;;;3.70;99.90;;;;;;4909231;29;20575;-68
2023/02/09 17:30:10;;;;;;;8.00;4.90;;;3.70;99.90;;;;;;4915086;29;20207;-67
2023/02/09 17:32:38;;;;;;;6.95;2.65;;;3.70;99.90;;;;;;4910695;29;20247;-67
2023/02/09 17:35:13;;;;;;;6.78;4.38;;;3.70;99.90;;;;;;4919434;29;20198;-68
2023/02/09 17:37:40;;;;;;;3.00;2.78;;;3.70;99.90;;;;;;4907368;29;20246;-67
2023/02/09 17:40:07;;;;;;;14.90;3.78;;;3.70;99.90;;;;;;4919583;29;20211;-68
2023/02/09 17:42:37;;;;;;;3.05;2.88;;;3.60;99.90;;;;;;4915178;29;20207;-68
2023/02/09 17:45:04;;;;;;;4.40;3.30;;;3.60;99.90;;;;;;4919752;29;20217;-67
2023/02/09 17:47:31;;;;;;;3.15;3.00;;;3.60;99.90;;;;;;4918470;29;20317;-70
2023/02/09 17:49:57;;;;;;;5.53;4.95;;;3.60;99.90;;;;;;4915034;29;20211;-69
2023/02/09 17:52:25;;;;;;;5.03;1.60;;;3.60;99.90;;;;;;4921566;29;20202;-66
2023/02/09 17:54:53;;;;;;;7.25;3.92;;;3.60;99.90;;;;;;4913590;29;20210;-66
2023/02/09 17:57:20;;;;;;;5.88;5.28;;;3.60;99.90;;;;;;4914400;29;20230;-67
2023/02/09 17:59:47;;;;;;;2.85;2.83;;;3.60;99.90;;;;;;4912931;29;20293;-67
2023/02/09 18:02:16;;;;;;;5.70;5.13;;;3.60;99.90;;;;;;4912923;29;20221;-68
2023/02/09 18:04:43;;;;;;;2.47;2.30;;;3.60;99.90;;;;;;4913173;29;20234;-68
2023/02/09 18:07:10;;;;;;;4.18;4.00;;;3.60;99.90;;;;;;4914082;29;20226;-68
2023/02/09 18:09:38;;;;;;;3.50;3.40;;;3.60;99.90;;;;;;4914573;29;20622;-68
2023/02/09 18:12:15;;;;;;;2.22;2.15;;;3.60;99.90;;;;;;4922087;29;20233;-68
2023/02/09 18:14:41;;;;;;;1.73;1.63;;;3.60;99.90;;;;;;4911187;29;20207;-67
2023/02/09 18:17:08;;;;;;;3.47;3.47;;;3.60;99.90;;;;;;4910494;29;20258;-67
2023/02/09 18:19:35;;;;;;;3.50;3.30;;;3.70;99.90;;;;;;4917285;29;20217;-67
2023/02/09 18:22:02;;;;;;;2.42;2.30;;;3.60;99.90;;;;;;4910745;29;20660;-67
2023/02/09 18:24:32;;;;;;;5.82;5.20;;;3.60;99.90;;;;;;4919411;29;20218;-67